KABY/ABY METAR and TAF weather

Enter ICAO airport designator
Station Type Date Time Source
KABY METAR 2019/07/20 04:53 UTC NOAA

KABY 200453Z AUTO 16005KT 10SM FEW003 23/21 A3010 RMK AO2 SLP190 T02280211 403390228


Station Type Date Time Source
KABY Decoded METAR 2019/07/20 04:53 UTC NOAA

ALBANY SOUTHWEST GEORGIA, GA, United States (KABY) 31-32N 084-12W 58M
Jul 20, 2019 - 12:53 AM EDT / 2019.07.20 0453 UTC
Wind: from the SSE (160 degrees) at 6 MPH (5 KT):0
Visibility: 10 mile(s):0
Sky conditions: mostly clear
Temperature: 73.0 F (22.8 C)
Dew Point: 70.0 F (21.1 C)
Relative Humidity: 90%
Pressure (altimeter): 30.1 in. Hg (1019 hPa)
ob: KABY 200453Z AUTO 16005KT 10SM FEW003 23/21 A3010 RMK AO2 SLP190 T02280211 403390228
cycle: 5

Station Type Date Time Source
KABY TAF 2019/07/20 06:22 UTC NOAA

TAF KABY 200520Z 2006/2106 VRB02KT P6SM SCT003 SCT030
TEMPO 2008/2012 6SM BR BKN007
FM201500 23007KT P6SM VCTS BKN050CB

Example: see airport list